createdAt,value
2018-09-14T00:00:35.225Z,101566.02
2018-09-14T00:03:02.898Z,101565.14
2018-09-14T00:05:30.710Z,101564.30
2018-09-14T00:07:57.971Z,101568.39
2018-09-14T00:10:25.207Z,101564.42
2018-09-14T00:12:52.473Z,101559.58
2018-09-14T00:15:19.692Z,101559.96
2018-09-14T00:17:46.875Z,101559.92
2018-09-14T00:20:14.142Z,101561.78
2018-09-14T00:22:41.337Z,101567.69
2018-09-14T00:25:08.548Z,101556.17
2018-09-14T00:27:36.358Z,101563.06
2018-09-14T00:30:03.753Z,101559.95
2018-09-14T00:32:30.951Z,101561.91
2018-09-14T00:34:58.185Z,101557.00
2018-09-14T00:37:25.458Z,101554.95
2018-09-14T00:39:52.665Z,101545.00
2018-09-14T00:42:19.923Z,101547.45
2018-09-14T00:44:47.124Z,101548.41
2018-09-14T00:47:14.305Z,101549.31
2018-09-14T00:49:41.647Z,101547.98
2018-09-14T00:52:08.885Z,101554.27
2018-09-14T00:54:36.061Z,101556.53
2018-09-14T00:57:03.335Z,101557.12
2018-09-14T00:59:30.537Z,101552.73
2018-09-14T01:01:57.842Z,101554.86
2018-09-14T01:04:25.142Z,101558.31
2018-09-14T01:06:52.339Z,101558.73
2018-09-14T01:09:24.448Z,101554.16
2018-09-14T01:11:51.772Z,101557.19
2018-09-14T01:14:18.966Z,101551.81
2018-09-14T01:16:46.242Z,101556.77
2018-09-14T01:19:13.454Z,101557.22
2018-09-14T01:21:40.738Z,101551.20
2018-09-14T01:24:08.839Z,101552.59
2018-09-14T01:26:36.346Z,101554.22
2018-09-14T01:29:03.602Z,101554.98
2018-09-14T01:31:30.898Z,101557.78
2018-09-14T01:33:58.491Z,101560.58
2018-09-14T01:36:25.685Z,101557.76
2018-09-14T01:38:52.950Z,101562.71
2018-09-14T01:41:20.136Z,101559.72
2018-09-14T01:43:47.333Z,101547.73
2018-09-14T01:46:14.591Z,101546.61
2018-09-14T01:48:41.832Z,101543.06
2018-09-14T01:51:09.027Z,101546.23
2018-09-14T01:53:36.363Z,101545.74
2018-09-14T01:56:03.621Z,101549.50
2018-09-14T01:58:30.843Z,101540.72
2018-09-14T02:00:58.101Z,101543.96
2018-09-14T02:03:25.354Z,101535.78
2018-09-14T02:05:52.794Z,101538.91
2018-09-14T02:08:20.025Z,101535.84
2018-09-14T02:10:47.225Z,101532.64
2018-09-14T02:13:14.441Z,101524.48
2018-09-14T02:15:41.702Z,101530.48
2018-09-14T02:18:08.927Z,101527.73
2018-09-14T02:20:36.160Z,101526.51
2018-09-14T02:23:03.409Z,101526.69
2018-09-14T02:25:30.935Z,101532.16
2018-09-14T02:27:58.170Z,101528.46
2018-09-14T02:30:25.414Z,101530.83
2018-09-14T02:32:52.638Z,101530.17
2018-09-14T02:35:19.885Z,101526.51
2018-09-14T02:37:47.546Z,101533.12
2018-09-14T02:40:14.791Z,101533.52
2018-09-14T02:42:42.000Z,101529.54
2018-09-14T02:45:09.273Z,101526.44
2018-09-14T02:47:36.511Z,101526.58
2018-09-14T02:50:03.793Z,101527.91
2018-09-14T02:52:31.093Z,101529.30
2018-09-14T02:54:58.425Z,101526.34
2018-09-14T02:57:25.678Z,101522.68
2018-09-14T02:59:53.046Z,101528.11
2018-09-14T03:02:20.365Z,101533.41
2018-09-14T03:04:47.585Z,101530.30
2018-09-14T03:07:14.870Z,101534.94
2018-09-14T03:09:42.075Z,101537.00
2018-09-14T03:12:09.377Z,101534.31
2018-09-14T03:14:36.593Z,101528.87
2018-09-14T03:17:03.855Z,101532.70
2018-09-14T03:19:31.097Z,101530.87
2018-09-14T03:21:58.391Z,101528.56
2018-09-14T03:24:25.602Z,101529.95
2018-09-14T03:26:52.859Z,101532.26
2018-09-14T03:29:20.192Z,101526.65
2018-09-14T03:31:47.402Z,101536.41
2018-09-14T03:34:14.622Z,101529.23
2018-09-14T03:36:42.328Z,101531.87
2018-09-14T03:39:10.338Z,101528.81
2018-09-14T03:41:37.602Z,101528.77
2018-09-14T03:44:04.924Z,101528.53
2018-09-14T03:46:32.177Z,101528.56
2018-09-14T03:48:59.434Z,101531.83
2018-09-14T03:51:26.681Z,101530.30
2018-09-14T03:53:53.941Z,101531.00
2018-09-14T03:56:21.290Z,101527.86
2018-09-14T03:58:48.715Z,101533.30
2018-09-14T04:01:15.977Z,101527.20
2018-09-14T04:03:43.224Z,101530.81
2018-09-14T04:06:10.491Z,101530.88
2018-09-14T04:08:37.745Z,101530.08
2018-09-14T04:11:05.038Z,101537.14
2018-09-14T04:13:32.390Z,101535.30
2018-09-14T04:16:00.740Z,101529.07
2018-09-14T04:18:28.064Z,101537.84
2018-09-14T04:20:55.352Z,101542.52
2018-09-14T04:23:22.638Z,101535.20
2018-09-14T04:25:49.956Z,101534.84
2018-09-14T04:28:17.258Z,101540.98
2018-09-14T04:30:44.502Z,101536.53
2018-09-14T04:33:11.760Z,101543.14
2018-09-14T04:35:39.067Z,101542.75
2018-09-14T04:38:06.428Z,101540.14
2018-09-14T04:40:33.632Z,101534.40
2018-09-14T04:43:00.898Z,101530.17
2018-09-14T04:45:28.093Z,101537.59
2018-09-14T04:47:55.325Z,101538.14
2018-09-14T04:50:22.967Z,101538.37
2018-09-14T04:52:50.213Z,101540.72
2018-09-14T04:55:17.383Z,101540.21
2018-09-14T04:57:45.138Z,101543.11
2018-09-14T05:00:12.382Z,101542.14
2018-09-14T05:02:39.614Z,101538.92
2018-09-14T05:05:06.993Z,101536.95
2018-09-14T05:07:34.302Z,101540.78
2018-09-14T05:10:01.523Z,101543.13
2018-09-14T05:12:28.785Z,101551.59
2018-09-14T05:14:55.989Z,101548.73
2018-09-14T05:17:23.217Z,101544.41
2018-09-14T05:19:50.429Z,101548.59
2018-09-14T05:22:17.609Z,101554.66
2018-09-14T05:24:44.789Z,101559.26
2018-09-14T05:27:12.046Z,101555.78
2018-09-14T05:29:39.365Z,101563.02
2018-09-14T05:32:06.600Z,101560.13
2018-09-14T05:34:33.862Z,101556.44
2018-09-14T05:37:01.070Z,101557.62
2018-09-14T05:39:28.299Z,101560.59
2018-09-14T05:41:55.636Z,101561.73
2018-09-14T05:44:22.854Z,101565.36
2018-09-14T05:46:50.116Z,101569.30
2018-09-14T05:49:17.374Z,101573.92
2018-09-14T05:51:44.592Z,101574.69
2018-09-14T05:54:11.874Z,101576.02
2018-09-14T05:56:40.878Z,101576.64
2018-09-14T05:59:08.190Z,101573.06
2018-09-14T06:01:35.442Z,101579.08
2018-09-14T06:04:02.793Z,101579.88
2018-09-14T06:06:30.200Z,101580.63
2018-09-14T06:08:57.435Z,101580.86
2018-09-14T06:11:24.769Z,101587.75
2018-09-14T06:13:52.116Z,101586.58
2018-09-14T06:16:19.413Z,101589.52
2018-09-14T06:18:46.960Z,101585.35
2018-09-14T06:21:14.208Z,101586.69
2018-09-14T06:23:41.427Z,101589.63
2018-09-14T06:26:08.795Z,101588.70
2018-09-14T06:28:36.055Z,101592.83
2018-09-14T06:31:03.306Z,101591.17
2018-09-14T06:33:31.704Z,101592.50
2018-09-14T06:35:58.960Z,101595.11
2018-09-14T06:38:26.183Z,101591.42
2018-09-14T06:40:53.427Z,101594.61
2018-09-14T06:43:20.616Z,101594.78
2018-09-14T06:45:47.856Z,101588.06
2018-09-14T06:48:15.074Z,101585.08
2018-09-14T06:50:42.283Z,101588.23
2018-09-14T06:53:09.543Z,101590.47
2018-09-14T06:55:36.786Z,101593.70
2018-09-14T06:58:04.039Z,101593.29
2018-09-14T07:00:31.322Z,101588.77
2018-09-14T07:02:58.656Z,101594.50
2018-09-14T07:05:26.031Z,101597.80
2018-09-14T07:07:53.313Z,101591.13
2018-09-14T07:10:20.826Z,101598.32
2018-09-14T07:12:48.070Z,101599.44
2018-09-14T07:15:15.311Z,101601.47
2018-09-14T07:17:42.603Z,101604.20
2018-09-14T07:20:10.163Z,101604.89
2018-09-14T07:22:37.541Z,101614.92
2018-09-14T07:25:04.837Z,101612.41
2018-09-14T07:27:32.111Z,101609.34
2018-09-14T07:29:59.559Z,101610.60
2018-09-14T07:32:26.935Z,101606.56
2018-09-14T07:34:54.685Z,101614.66
2018-09-14T07:37:22.081Z,101617.26
2018-09-14T07:39:49.537Z,101615.31
2018-09-14T07:42:16.879Z,101624.13
2018-09-14T07:44:44.164Z,101628.66
2018-09-14T07:47:11.638Z,101625.25
2018-09-14T07:49:38.889Z,101626.23
2018-09-14T07:52:06.529Z,101625.36
2018-09-14T07:54:33.850Z,101626.33
2018-09-14T07:57:01.133Z,101629.41
2018-09-14T07:59:28.400Z,101631.69
2018-09-14T08:01:55.729Z,101630.18
2018-09-14T08:04:23.036Z,101630.50
2018-09-14T08:06:50.246Z,101626.75
2018-09-14T08:09:17.553Z,101634.43
2018-09-14T08:11:44.757Z,101626.95
2018-09-14T08:14:11.973Z,101629.80
2018-09-14T08:16:39.209Z,101642.22
2018-09-14T08:19:06.893Z,101638.38
2018-09-14T08:21:34.378Z,101633.00
2018-09-14T08:24:01.649Z,101636.38
2018-09-14T08:26:28.906Z,101637.48
2018-09-14T08:28:56.115Z,101638.02
2018-09-14T08:31:23.559Z,101640.41
2018-09-14T08:33:50.797Z,101644.20
2018-09-14T08:36:17.989Z,101642.02
2018-09-14T08:38:45.240Z,101639.98
2018-09-14T08:41:12.982Z,101638.45
2018-09-14T08:43:40.176Z,101642.64
2018-09-14T08:46:07.493Z,101645.16
2018-09-14T08:48:34.713Z,101643.50
2018-09-14T08:51:01.987Z,101646.44
2018-09-14T08:53:29.334Z,101649.12
2018-09-14T08:55:56.605Z,101643.52
2018-09-14T08:58:23.858Z,101643.29
2018-09-14T09:00:51.182Z,101637.78
2018-09-14T09:03:18.481Z,101638.98
2018-09-14T09:05:45.756Z,101644.10
2018-09-14T09:08:13.041Z,101639.78
2018-09-14T09:10:40.335Z,101645.77
2018-09-14T09:13:07.541Z,101636.27
2018-09-14T09:15:34.916Z,101636.69
2018-09-14T09:18:02.150Z,101634.51
2018-09-14T09:20:29.389Z,101642.70
2018-09-14T09:22:56.645Z,101638.11
2018-09-14T09:25:23.863Z,101632.38
2018-09-14T09:27:51.126Z,101633.81
2018-09-14T09:30:18.460Z,101630.89
2018-09-14T09:32:45.676Z,101629.73
2018-09-14T09:35:12.951Z,101631.23
2018-09-14T09:37:40.272Z,101628.59
2018-09-14T09:40:07.541Z,101627.13
2018-09-14T09:42:34.759Z,101632.28
2018-09-14T09:45:02.094Z,101632.05
2018-09-14T09:47:29.385Z,101633.46
2018-09-14T09:49:56.618Z,101626.98
2018-09-14T09:52:23.912Z,101635.21
2018-09-14T09:54:51.139Z,101632.21
2018-09-14T09:57:18.369Z,101628.04
2018-09-14T09:59:45.618Z,101625.23
2018-09-14T10:02:18.578Z,101624.72
2018-09-14T10:04:51.622Z,101628.07
2018-09-14T10:07:18.828Z,101631.23
2018-09-14T10:09:46.050Z,101621.84
2018-09-14T10:12:13.301Z,101616.83
2018-09-14T10:14:40.469Z,101620.33
2018-09-14T10:17:07.673Z,101613.89
2018-09-14T10:19:35.246Z,101612.17
2018-09-14T10:22:02.434Z,101615.64
2018-09-14T10:24:29.618Z,101612.03
2018-09-14T10:26:56.853Z,101616.17
2018-09-14T10:29:24.037Z,101620.58
2018-09-14T10:31:51.247Z,101616.87
2018-09-14T10:34:18.489Z,101613.91
2018-09-14T10:36:45.677Z,101617.59
2018-09-14T10:39:12.891Z,101616.87
2018-09-14T10:41:40.153Z,101616.58
2018-09-14T10:44:07.353Z,101618.38
2018-09-14T10:46:34.626Z,101618.98
2018-09-14T10:49:01.934Z,101615.30
2018-09-14T10:51:29.155Z,101614.38
2018-09-14T10:53:56.349Z,101609.42
2018-09-14T10:56:23.626Z,101608.48
2018-09-14T10:58:50.815Z,101617.12
2018-09-14T11:01:17.989Z,101616.44
2018-09-14T11:03:45.399Z,101609.25
2018-09-14T11:06:13.646Z,101612.56
2018-09-14T11:08:40.804Z,101612.72
2018-09-14T11:11:08.145Z,101611.98
2018-09-14T11:13:35.348Z,101613.58
2018-09-14T11:16:02.562Z,101615.87
2018-09-14T11:18:29.865Z,101617.45
2018-09-14T11:20:57.062Z,101606.97
2018-09-14T11:23:24.257Z,101602.74
2018-09-14T11:25:51.493Z,101604.99
2018-09-14T11:28:18.721Z,101596.37
2018-09-14T11:30:45.916Z,101598.86
2018-09-14T11:33:14.181Z,101603.77
2018-09-14T11:35:41.372Z,101593.07
2018-09-14T11:38:08.627Z,101594.73
2018-09-14T11:40:35.817Z,101598.63
2018-09-14T11:43:03.165Z,101597.63
2018-09-14T11:45:30.360Z,101586.34
2018-09-14T11:47:57.598Z,101591.30
2018-09-14T11:50:24.870Z,101593.12
2018-09-14T11:52:52.359Z,101578.19
2018-09-14T11:55:20.039Z,101578.38
2018-09-14T11:57:47.229Z,101574.80
2018-09-14T12:00:14.470Z,101579.23
2018-09-14T12:02:42.962Z,101578.97
2018-09-14T12:05:10.564Z,101578.91
2018-09-14T12:07:39.186Z,101579.91
2018-09-14T12:10:07.674Z,101580.55
2018-09-14T12:12:34.904Z,101573.99
2018-09-14T12:15:02.125Z,101567.27
2018-09-14T12:17:29.877Z,101557.31
2018-09-14T12:19:57.449Z,101568.94
2018-09-14T12:22:28.010Z,101562.87
2018-09-14T12:24:55.306Z,101556.27
2018-09-14T12:27:23.296Z,101556.91
2018-09-14T12:29:50.528Z,101555.04
2018-09-14T12:32:17.865Z,101554.28
2018-09-14T12:34:45.931Z,101551.84
2018-09-14T12:37:13.137Z,101555.31
2018-09-14T12:39:41.912Z,101557.42
2018-09-14T12:42:09.199Z,101554.53
2018-09-14T12:44:36.429Z,101552.06
2018-09-14T12:47:03.778Z,101549.31
2018-09-14T12:49:31.193Z,101545.77
2018-09-14T12:51:58.425Z,101544.68
2018-09-14T12:54:25.694Z,101537.98
2018-09-14T12:56:52.911Z,101544.52
2018-09-14T12:59:20.105Z,101540.83
2018-09-14T13:01:47.398Z,101537.95
2018-09-14T13:04:14.659Z,101541.23
2018-09-14T13:06:41.805Z,101533.52
2018-09-14T13:09:10.510Z,101529.52
2018-09-14T13:11:38.188Z,101533.50
2018-09-14T13:14:05.474Z,101531.73
2018-09-14T13:16:32.728Z,101524.59
2018-09-14T13:18:59.916Z,101530.95
2018-09-14T13:21:27.118Z,101532.26
2018-09-14T13:23:54.349Z,101530.31
2018-09-14T13:26:21.555Z,101524.36
2018-09-14T13:28:48.746Z,101523.91
2018-09-14T13:31:15.968Z,101524.14
2018-09-14T13:33:43.267Z,101517.72
2018-09-14T13:36:10.431Z,101519.25
2018-09-14T13:38:37.684Z,101514.59
2018-09-14T13:41:04.997Z,101518.75
2018-09-14T13:43:32.211Z,101506.53
2018-09-14T13:45:59.474Z,101510.33
2018-09-14T13:48:26.774Z,101510.55
2018-09-14T13:50:53.990Z,101508.01
2018-09-14T13:53:21.219Z,101503.73
2018-09-14T13:55:48.480Z,101510.80
2018-09-14T13:58:15.692Z,101509.52
2018-09-14T14:00:42.933Z,101510.96
2018-09-14T14:03:20.554Z,101505.05
2018-09-14T14:05:47.811Z,101510.06
2018-09-14T14:08:14.996Z,101505.70
2018-09-14T14:10:42.282Z,101505.63
2018-09-14T14:13:09.828Z,101500.56
2018-09-14T14:15:37.063Z,101500.30
2018-09-14T14:18:05.429Z,101497.84
2018-09-14T14:20:32.663Z,101488.30
2018-09-14T14:23:00.080Z,101492.90
2018-09-14T14:25:27.477Z,101489.53
2018-09-14T14:27:54.960Z,101488.50
2018-09-14T14:30:22.182Z,101483.55
2018-09-14T14:32:49.437Z,101478.86
2018-09-14T14:35:16.690Z,101481.45
2018-09-14T14:37:44.002Z,101480.50
2018-09-14T14:40:11.197Z,101477.26
2018-09-14T14:42:38.516Z,101480.95
2018-09-14T14:45:05.733Z,101476.12
2018-09-14T14:47:32.930Z,101469.52
2018-09-14T14:50:00.289Z,101467.95
2018-09-14T14:52:27.504Z,101471.72
2018-09-14T14:54:54.718Z,101462.92
2018-09-14T14:57:21.971Z,101462.91
2018-09-14T14:59:49.215Z,101461.85
2018-09-14T15:02:16.393Z,101459.50
2018-09-14T15:04:43.658Z,101455.22
2018-09-14T15:07:10.953Z,101460.58
2018-09-14T15:09:38.137Z,101453.98
2018-09-14T15:12:05.858Z,101457.80
2018-09-14T15:14:33.323Z,101452.25
2018-09-14T15:17:00.502Z,101456.66
2018-09-14T15:19:27.770Z,101459.32
2018-09-14T15:21:55.058Z,101450.25
2018-09-14T15:24:22.538Z,101447.38
2018-09-14T15:26:49.752Z,101448.72
2018-09-14T15:29:16.995Z,101444.69
2018-09-14T15:31:45.929Z,101442.73
2018-09-14T15:34:13.929Z,101442.28
2018-09-14T15:36:41.182Z,101445.12
2018-09-14T15:39:09.569Z,101435.12
2018-09-14T15:41:36.767Z,101431.70
2018-09-14T15:44:04.046Z,101427.34
2018-09-14T15:46:31.222Z,101427.75
2018-09-14T15:48:58.425Z,101426.23
2018-09-14T15:51:25.661Z,101423.65
2018-09-14T15:53:52.857Z,101423.93
2018-09-14T15:56:23.879Z,101419.64
2018-09-14T15:58:51.164Z,101424.02
2018-09-14T16:01:18.344Z,101422.69
2018-09-14T16:03:45.562Z,101417.73
2018-09-14T16:06:12.906Z,101422.34
2018-09-14T16:08:40.121Z,101419.01
2018-09-14T16:11:07.380Z,101421.50
2018-09-14T16:13:34.696Z,101418.88
2018-09-14T16:16:01.829Z,101425.25
2018-09-14T16:18:29.002Z,101421.45
2018-09-14T16:20:56.229Z,101423.44
2018-09-14T16:23:23.424Z,101423.78
2018-09-14T16:25:50.896Z,101428.12
2018-09-14T16:28:18.133Z,101421.54
2018-09-14T16:30:46.420Z,101423.55
2018-09-14T16:33:13.603Z,101420.49
2018-09-14T16:35:40.833Z,101422.34
2018-09-14T16:38:08.383Z,101432.94
2018-09-14T16:40:36.133Z,101427.64
2018-09-14T16:43:03.460Z,101430.34
2018-09-14T16:45:30.650Z,101436.52
2018-09-14T16:47:57.857Z,101431.98
2018-09-14T16:50:25.141Z,101430.05
2018-09-14T16:52:52.269Z,101434.59
2018-09-14T16:55:19.567Z,101428.52
2018-09-14T16:57:46.882Z,101430.91
2018-09-14T17:00:15.108Z,101439.99
2018-09-14T17:02:42.317Z,101438.97
2018-09-14T17:05:10.575Z,101439.34
2018-09-14T17:07:37.786Z,101433.47
2018-09-14T17:10:06.050Z,101432.55
2018-09-14T17:12:33.299Z,101431.93
2018-09-14T17:15:01.408Z,101421.77
2018-09-14T17:17:28.625Z,101427.68
2018-09-14T17:19:55.935Z,101427.92
2018-09-14T17:22:23.154Z,101427.21
2018-09-14T17:24:56.440Z,101426.17
2018-09-14T17:27:23.711Z,101425.16
2018-09-14T17:29:50.900Z,101428.20
2018-09-14T17:32:18.197Z,101427.67
2018-09-14T17:34:46.454Z,101429.38
2018-09-14T17:37:13.811Z,101428.05
2018-09-14T17:39:41.046Z,101428.32
2018-09-14T17:42:08.324Z,101432.95
2018-09-14T17:44:35.525Z,101428.38
2018-09-14T17:47:02.871Z,101425.53
2018-09-14T17:49:30.065Z,101431.34
2018-09-14T17:51:57.245Z,101438.73
2018-09-14T17:54:24.490Z,101445.59
2018-09-14T17:56:51.648Z,101434.82
2018-09-14T17:59:19.716Z,101436.83
2018-09-14T18:01:46.992Z,101445.95
2018-09-14T18:04:14.229Z,101442.22
2018-09-14T18:06:41.445Z,101443.34
2018-09-14T18:09:10.423Z,101441.27
2018-09-14T18:11:37.880Z,101440.19
2018-09-14T18:14:05.137Z,101443.48
2018-09-14T18:16:32.513Z,101447.17
2018-09-14T18:18:59.736Z,101442.91
2018-09-14T18:21:26.971Z,101443.52
2018-09-14T18:23:54.255Z,101445.98
2018-09-14T18:26:21.425Z,101444.55
2018-09-14T18:28:48.808Z,101444.55
2018-09-14T18:31:16.055Z,101446.37
2018-09-14T18:33:43.227Z,101448.91
2018-09-14T18:36:10.441Z,101451.36
2018-09-14T18:38:37.621Z,101450.91
2018-09-14T18:41:04.789Z,101443.48
2018-09-14T18:43:31.954Z,101442.70
2018-09-14T18:45:59.161Z,101445.55
2018-09-14T18:48:26.383Z,101440.25
2018-09-14T18:50:53.677Z,101441.16
2018-09-14T18:53:20.888Z,101442.31
2018-09-14T18:55:48.215Z,101445.11
2018-09-14T18:58:15.446Z,101443.67
2018-09-14T19:00:42.633Z,101443.14
2018-09-14T19:03:09.859Z,101441.36
2018-09-14T19:05:37.045Z,101448.48
2018-09-14T19:08:04.280Z,101443.48
2018-09-14T19:10:31.561Z,101447.13
2018-09-14T19:12:58.811Z,101443.72
2018-09-14T19:15:26.091Z,101446.74
2018-09-14T19:17:53.550Z,101441.56
2018-09-14T19:20:20.867Z,101442.09
2018-09-14T19:22:48.122Z,101444.25
2018-09-14T19:25:15.425Z,101444.74
2018-09-14T19:27:42.676Z,101449.44
2018-09-14T19:30:10.147Z,101448.25
2018-09-14T19:32:37.563Z,101447.53
2018-09-14T19:35:04.741Z,101453.55
2018-09-14T19:37:31.942Z,101453.69
2018-09-14T19:39:59.229Z,101452.06
2018-09-14T19:42:26.433Z,101449.03
2018-09-14T19:44:53.635Z,101453.80
2018-09-14T19:47:20.911Z,101453.01
2018-09-14T19:49:48.116Z,101456.00
2018-09-14T19:52:16.306Z,101456.63
2018-09-14T19:54:43.530Z,101456.22
2018-09-14T19:57:10.733Z,101448.70
2018-09-14T19:59:37.957Z,101455.49
2018-09-14T20:02:05.259Z,101443.09
2018-09-14T20:04:32.448Z,101446.41
2018-09-14T20:06:59.649Z,101446.86
2018-09-14T20:09:26.937Z,101448.39
2018-09-14T20:11:54.105Z,101450.69
2018-09-14T20:14:21.477Z,101443.66
2018-09-14T20:16:48.691Z,101449.37
2018-09-14T20:19:15.907Z,101454.59
2018-09-14T20:21:43.094Z,101458.52
2018-09-14T20:24:10.466Z,101451.42
2018-09-14T20:26:38.531Z,101458.20
2018-09-14T20:29:05.770Z,101452.73
2018-09-14T20:31:33.058Z,101447.37
2018-09-14T20:34:00.256Z,101451.41
2018-09-14T20:36:27.472Z,101446.92
2018-09-14T20:38:54.689Z,101448.66
2018-09-14T20:41:21.878Z,101449.76
2018-09-14T20:43:49.058Z,101452.44
2018-09-14T20:46:17.159Z,101442.05
2018-09-14T20:48:44.345Z,101445.46
2018-09-14T20:51:11.522Z,101444.63
2018-09-14T20:53:38.791Z,101442.89
2018-09-14T20:56:06.001Z,101438.42
2018-09-14T20:58:33.179Z,101438.11
2018-09-14T21:01:00.401Z,101445.26
2018-09-14T21:03:28.685Z,101436.73
2018-09-14T21:05:55.943Z,101444.48
2018-09-14T21:08:23.169Z,101443.61
2018-09-14T21:10:50.346Z,101441.98
2018-09-14T21:13:17.599Z,101443.53
2018-09-14T21:15:44.883Z,101443.03
2018-09-14T21:18:12.066Z,101437.20
2018-09-14T21:20:39.294Z,101443.25
2018-09-14T21:23:06.569Z,101443.13
2018-09-14T21:25:33.726Z,101447.02
2018-09-14T21:28:00.908Z,101446.53
2018-09-14T21:30:28.130Z,101437.75
2018-09-14T21:32:55.363Z,101439.28
2018-09-14T21:35:22.541Z,101436.55
2018-09-14T21:37:49.813Z,101434.30
2018-09-14T21:40:17.078Z,101433.48
2018-09-14T21:42:44.362Z,101435.22
2018-09-14T21:45:11.579Z,101437.37
2018-09-14T21:47:38.731Z,101434.27
2018-09-14T21:50:05.957Z,101435.75
2018-09-14T21:52:33.202Z,101433.60
2018-09-14T21:55:00.521Z,101433.52
2018-09-14T21:57:27.713Z,101430.78
2018-09-14T21:59:55.023Z,101428.55
2018-09-14T22:02:22.209Z,101427.22
2018-09-14T22:04:49.451Z,101427.34
2018-09-14T22:07:16.706Z,101429.30
2018-09-14T22:09:43.896Z,101431.77
2018-09-14T22:12:11.067Z,101434.52
2018-09-14T22:14:38.325Z,101426.43
2018-09-14T22:17:05.506Z,101427.63
2018-09-14T22:19:32.681Z,101433.39
2018-09-14T22:21:59.952Z,101432.52
2018-09-14T22:24:27.098Z,101422.69
2018-09-14T22:26:54.250Z,101424.02
2018-09-14T22:29:21.540Z,101419.41
2018-09-14T22:31:48.705Z,101420.64
2018-09-14T22:34:15.968Z,101413.84
2018-09-14T22:36:44.030Z,101423.03
2018-09-14T22:39:12.411Z,101418.05
2018-09-14T22:41:39.601Z,101425.14
2018-09-14T22:44:06.943Z,101420.13
2018-09-14T22:46:34.113Z,101419.06
2018-09-14T22:49:01.369Z,101415.55
2018-09-14T22:51:28.604Z,101413.76
2018-09-14T22:53:55.796Z,101412.72
2018-09-14T22:56:22.978Z,101413.63
2018-09-14T22:58:50.226Z,101412.02
2018-09-14T23:01:18.655Z,101412.52
2018-09-14T23:03:46.748Z,101410.02
2018-09-14T23:06:13.993Z,101414.58
2018-09-14T23:08:41.172Z,101403.69
2018-09-14T23:11:08.693Z,101408.12
2018-09-14T23:13:35.942Z,101398.84
2018-09-14T23:16:03.112Z,101399.25
2018-09-14T23:18:31.152Z,101401.12
2018-09-14T23:20:58.956Z,101401.70
2018-09-14T23:23:26.150Z,101399.97
2018-09-14T23:25:56.795Z,101399.70
2018-09-14T23:28:23.988Z,101403.30
2018-09-14T23:30:51.265Z,101400.14
2018-09-14T23:33:18.431Z,101401.94
2018-09-14T23:35:45.702Z,101398.00
2018-09-14T23:38:12.903Z,101392.04
2018-09-14T23:40:40.077Z,101395.70
2018-09-14T23:43:07.438Z,101399.04
2018-09-14T23:45:34.698Z,101396.39
2018-09-14T23:48:01.893Z,101398.02
2018-09-14T23:50:29.167Z,101401.42
2018-09-14T23:52:56.334Z,101401.80
2018-09-14T23:55:23.505Z,101402.41
2018-09-14T23:57:50.722Z,101399.93
